Terminal Aerodrome Forecast
Issued by NWS Austin/San Antonio, TX

Home | Current Version | Previous Version | Text Only | Print | Product List | Glossary On
Versions: 1 2 3 4 5 6 7 8 9 10 11 12 13 14 15
000
FTUS44 KEWX 310600 AAA
TAFDRT
TAF AMD
KDRT 310649Z 3107/0106 10012KT P6SM OVC025
     FM310800 12010KT P6SM OVC015
     FM311000 11011KT 4SM -RA BR BKN008 OVC015
     FM010000 12004KT 1SM BR OVC007=

USA.gov is the U.S. government's official web portal to all federal, state and local government web resources and services.